sensor_id;sensor_type;location;lat;lon;timestamp;pressure;altitude;pressure_sealevel;temperature;humidity
11648;BME280;5880;52.342;9.662;2023-03-23T00:01:56;99842.44;;;17.30;45.87
11648;BME280;5880;52.342;9.662;2023-03-23T00:04:21;99834.03;;;17.21;46.00
11648;BME280;5880;52.342;9.662;2023-03-23T00:06:48;99834.31;;;17.20;46.23
11648;BME280;5880;52.342;9.662;2023-03-23T00:09:14;99830.81;;;17.14;46.29
11648;BME280;5880;52.342;9.662;2023-03-23T00:11:42;99831.69;;;17.09;46.31
11648;BME280;5880;52.342;9.662;2023-03-23T00:14:09;99820.19;;;17.02;46.55
11648;BME280;5880;52.342;9.662;2023-03-23T00:16:40;99824.84;;;17.02;46.60
11648;BME280;5880;52.342;9.662;2023-03-23T00:19:11;99825.47;;;16.99;46.73
11648;BME280;5880;52.342;9.662;2023-03-23T00:21:42;99817.25;;;16.94;46.71
11648;BME280;5880;52.342;9.662;2023-03-23T00:24:10;99807.63;;;16.91;46.88
11648;BME280;5880;52.342;9.662;2023-03-23T00:26:39;99815.97;;;16.86;47.16
11648;BME280;5880;52.342;9.662;2023-03-23T00:29:14;99810.72;;;16.84;47.27
11648;BME280;5880;52.342;9.662;2023-03-23T00:31:42;99806.09;;;16.80;47.32
11648;BME280;5880;52.342;9.662;2023-03-23T00:34:13;99804.47;;;16.79;47.42
11648;BME280;5880;52.342;9.662;2023-03-23T00:36:43;99810.28;;;16.72;47.42
11648;BME280;5880;52.342;9.662;2023-03-23T00:39:10;99799.78;;;16.74;47.51
11648;BME280;5880;52.342;9.662;2023-03-23T00:41:35;99797.59;;;16.71;47.63
11648;BME280;5880;52.342;9.662;2023-03-23T00:44:02;99792.91;;;16.72;47.72
11648;BME280;5880;52.342;9.662;2023-03-23T00:46:28;99794.00;;;16.71;47.99
11648;BME280;5880;52.342;9.662;2023-03-23T00:48:55;99791.53;;;16.69;47.80
11648;BME280;5880;52.342;9.662;2023-03-23T00:51:23;99799.00;;;16.68;48.01
11648;BME280;5880;52.342;9.662;2023-03-23T00:53:49;99804.84;;;16.67;47.90
11648;BME280;5880;52.342;9.662;2023-03-23T00:56:15;99801.81;;;16.63;48.18
11648;BME280;5880;52.342;9.662;2023-03-23T00:58:41;99793.81;;;16.62;48.13
11648;BME280;5880;52.342;9.662;2023-03-23T01:01:08;99798.00;;;16.59;48.43
11648;BME280;5880;52.342;9.662;2023-03-23T01:03:34;99793.59;;;16.58;48.37
11648;BME280;5880;52.342;9.662;2023-03-23T01:06:10;99790.53;;;16.60;48.45
11648;BME280;5880;52.342;9.662;2023-03-23T01:08:41;99796.38;;;16.58;48.55
11648;BME280;5880;52.342;9.662;2023-03-23T01:11:15;99789.50;;;16.56;48.56
11648;BME280;5880;52.342;9.662;2023-03-23T01:13:42;99785.09;;;16.55;48.70
11648;BME280;5880;52.342;9.662;2023-03-23T01:16:10;99775.19;;;16.54;48.63
11648;BME280;5880;52.342;9.662;2023-03-23T01:18:36;99770.47;;;16.54;48.52
11648;BME280;5880;52.342;9.662;2023-03-23T01:21:13;99767.72;;;16.54;48.70
11648;BME280;5880;52.342;9.662;2023-03-23T01:23:39;99765.56;;;16.51;48.60
11648;BME280;5880;52.342;9.662;2023-03-23T01:26:08;99760.31;;;16.50;48.92
11648;BME280;5880;52.342;9.662;2023-03-23T01:28:35;99755.41;;;16.46;49.06
11648;BME280;5880;52.342;9.662;2023-03-23T01:31:05;99758.72;;;16.43;49.23
11648;BME280;5880;52.342;9.662;2023-03-23T01:33:32;99758.22;;;16.41;49.02
11648;BME280;5880;52.342;9.662;2023-03-23T01:36:06;99749.09;;;16.41;49.24
11648;BME280;5880;52.342;9.662;2023-03-23T01:38:35;99753.25;;;16.38;49.29
11648;BME280;5880;52.342;9.662;2023-03-23T01:41:02;99739.78;;;16.37;49.51
11648;BME280;5880;52.342;9.662;2023-03-23T01:43:29;99744.50;;;16.31;49.50
11648;BME280;5880;52.342;9.662;2023-03-23T01:45:54;99729.63;;;16.32;49.57
11648;BME280;5880;52.342;9.662;2023-03-23T01:48:34;99747.53;;;16.35;49.49
11648;BME280;5880;52.342;9.662;2023-03-23T01:51:14;99751.09;;;16.35;49.60
11648;BME280;5880;52.342;9.662;2023-03-23T01:54:04;99732.06;;;16.34;49.72
11648;BME280;5880;52.342;9.662;2023-03-23T01:56:40;99747.81;;;16.33;49.73
11648;BME280;5880;52.342;9.662;2023-03-23T01:59:11;99736.56;;;16.30;49.78
11648;BME280;5880;52.342;9.662;2023-03-23T02:01:37;99735.16;;;16.32;49.78
11648;BME280;5880;52.342;9.662;2023-03-23T02:04:05;99722.78;;;16.30;49.71
11648;BME280;5880;52.342;9.662;2023-03-23T02:06:32;99730.97;;;16.35;49.90
11648;BME280;5880;52.342;9.662;2023-03-23T02:08:59;99746.41;;;16.36;49.67
11648;BME280;5880;52.342;9.662;2023-03-23T02:11:25;99733.75;;;16.35;50.01
11648;BME280;5880;52.342;9.662;2023-03-23T02:13:51;99740.34;;;16.34;49.95
11648;BME280;5880;52.342;9.662;2023-03-23T02:18:59;99720.47;;;16.37;49.82
11648;BME280;5880;52.342;9.662;2023-03-23T02:22:17;99733.75;;;16.35;49.81
11648;BME280;5880;52.342;9.662;2023-03-23T02:31:19;99720.50;;;16.32;50.01
11648;BME280;5880;52.342;9.662;2023-03-23T02:34:00;99722.19;;;16.33;50.28
11648;BME280;5880;52.342;9.662;2023-03-23T02:36:39;99709.75;;;16.35;49.96
11648;BME280;5880;52.342;9.662;2023-03-23T02:39:24;99689.63;;;16.35;50.10
11648;BME280;5880;52.342;9.662;2023-03-23T02:41:58;99673.59;;;16.37;49.99
11648;BME280;5880;52.342;9.662;2023-03-23T02:44:29;99676.38;;;16.37;50.03
11648;BME280;5880;52.342;9.662;2023-03-23T02:46:59;99700.06;;;16.38;50.14
11648;BME280;5880;52.342;9.662;2023-03-23T02:49:29;99704.16;;;16.40;50.07
11648;BME280;5880;52.342;9.662;2023-03-23T02:51:59;99695.06;;;16.40;50.14
11648;BME280;5880;52.342;9.662;2023-03-23T02:54:29;99704.16;;;16.40;50.12
11648;BME280;5880;52.342;9.662;2023-03-23T02:56:57;99690.38;;;16.40;50.25
11648;BME280;5880;52.342;9.662;2023-03-23T02:59:23;99695.88;;;16.40;50.13
11648;BME280;5880;52.342;9.662;2023-03-23T03:02:01;99685.38;;;16.42;50.33
11648;BME280;5880;52.342;9.662;2023-03-23T03:04:31;99669.72;;;16.38;50.32
11648;BME280;5880;52.342;9.662;2023-03-23T03:07:39;99674.66;;;16.41;50.18
11648;BME280;5880;52.342;9.662;2023-03-23T03:10:37;99669.44;;;16.39;50.25
11648;BME280;5880;52.342;9.662;2023-03-23T03:13:32;99669.72;;;16.38;50.43
11648;BME280;5880;52.342;9.662;2023-03-23T03:16:37;99678.88;;;16.33;50.32
11648;BME280;5880;52.342;9.662;2023-03-23T03:19:15;99694.31;;;16.34;50.36
11648;BME280;5880;52.342;9.662;2023-03-23T03:21:46;99693.78;;;16.32;50.38
11648;BME280;5880;52.342;9.662;2023-03-23T03:24:18;99679.47;;;16.30;50.53
11648;BME280;5880;52.342;9.662;2023-03-23T03:26:48;99677.53;;;16.31;50.71
11648;BME280;5880;52.342;9.662;2023-03-23T03:29:20;99664.88;;;16.30;50.64
11648;BME280;5880;52.342;9.662;2023-03-23T03:31:51;99671.19;;;16.30;50.60
11648;BME280;5880;52.342;9.662;2023-03-23T03:34:21;99671.47;;;16.29;50.76
11648;BME280;5880;52.342;9.662;2023-03-23T03:36:51;99668.44;;;16.30;50.72
11648;BME280;5880;52.342;9.662;2023-03-23T03:39:18;99665.69;;;16.30;50.81
11648;BME280;5880;52.342;9.662;2023-03-23T03:41:46;99678.66;;;16.30;50.85
11648;BME280;5880;52.342;9.662;2023-03-23T03:44:12;99659.38;;;16.24;50.67
11648;BME280;5880;52.342;9.662;2023-03-23T03:46:38;99658.50;;;16.29;50.90
11648;BME280;5880;52.342;9.662;2023-03-23T03:49:07;99655.47;;;16.31;50.97
11648;BME280;5880;52.342;9.662;2023-03-23T03:51:35;99669.53;;;16.29;50.86
11648;BME280;5880;52.342;9.662;2023-03-23T03:54:01;99670.06;;;16.31;50.87
11648;BME280;5880;52.342;9.662;2023-03-23T03:56:27;99665.38;;;16.32;50.83
11648;BME280;5880;52.342;9.662;2023-03-23T03:58:53;99662.63;;;16.32;50.91
11648;BME280;5880;52.342;9.662;2023-03-23T04:01:22;99643.31;;;16.32;50.72
11648;BME280;5880;52.342;9.662;2023-03-23T04:03:49;99653.25;;;16.33;50.80
11648;BME280;5880;52.342;9.662;2023-03-23T04:06:16;99654.34;;;16.32;50.56
11648;BME280;5880;52.342;9.662;2023-03-23T04:08:43;99648.81;;;16.32;50.63
11648;BME280;5880;52.342;9.662;2023-03-23T04:11:11;99653.53;;;16.31;50.75
11648;BME280;5880;52.342;9.662;2023-03-23T04:13:39;99652.44;;;16.32;50.74
11648;BME280;5880;52.342;9.662;2023-03-23T04:16:05;99641.41;;;16.32;50.62
11648;BME280;5880;52.342;9.662;2023-03-23T04:18:32;99646.91;;;16.32;50.63
11648;BME280;5880;52.342;9.662;2023-03-23T04:21:01;99646.91;;;16.32;50.58
11648;BME280;5880;52.342;9.662;2023-03-23T04:23:29;99654.88;;;16.34;50.63
11648;BME280;5880;52.342;9.662;2023-03-23T04:25:56;99640.28;;;16.33;50.63
11648;BME280;5880;52.342;9.662;2023-03-23T04:28:25;99640.00;;;16.35;50.54
11648;BME280;5880;52.342;9.662;2023-03-23T04:30:52;99633.66;;;16.34;50.61
11648;BME280;5880;52.342;9.662;2023-03-23T04:33:25;99628.16;;;16.34;50.54
11648;BME280;5880;52.342;9.662;2023-03-23T04:35:56;99630.06;;;16.34;50.57
11648;BME280;5880;52.342;9.662;2023-03-23T04:38:23;99642.75;;;16.35;50.38
11648;BME280;5880;52.342;9.662;2023-03-23T04:40:52;99644.69;;;16.34;50.44
11648;BME280;5880;52.342;9.662;2023-03-23T04:43:23;99641.41;;;16.32;50.44
11648;BME280;5880;52.342;9.662;2023-03-23T04:45:57;99644.38;;;16.36;50.39
11648;BME280;5880;52.342;9.662;2023-03-23T04:48:29;99641.94;;;16.34;50.41
11648;BME280;5880;52.342;9.662;2023-03-23T04:51:01;99633.94;;;16.33;50.55
11648;BME280;5880;52.342;9.662;2023-03-23T04:53:29;99627.63;;;16.32;50.52
11648;BME280;5880;52.342;9.662;2023-03-23T04:55:54;99625.69;;;16.33;50.53
11648;BME280;5880;52.342;9.662;2023-03-23T04:58:20;99628.72;;;16.31;50.56
11648;BME280;5880;52.342;9.662;2023-03-23T05:00:47;99621.56;;;16.30;50.48
11648;BME280;5880;52.342;9.662;2023-03-23T05:03:19;99624.34;;;16.30;50.48
11648;BME280;5880;52.342;9.662;2023-03-23T05:05:46;99631.78;;;16.30;50.40
11648;BME280;5880;52.342;9.662;2023-03-23T05:08:21;99623.81;;;16.28;50.43
11648;BME280;5880;52.342;9.662;2023-03-23T05:10:58;99636.78;;;16.28;50.46
11648;BME280;5880;52.342;9.662;2023-03-23T05:13:25;99638.19;;;16.25;50.78
11648;BME280;5880;52.342;9.662;2023-03-23T05:15:51;99644.50;;;16.25;50.57
11648;BME280;5880;52.342;9.662;2023-03-23T05:18:17;99642.03;;;16.24;50.49
11648;BME280;5880;52.342;9.662;2023-03-23T05:20:42;99641.22;;;16.23;50.53
11648;BME280;5880;52.342;9.662;2023-03-23T05:23:09;99645.38;;;16.21;50.56
11648;BME280;5880;52.342;9.662;2023-03-23T05:25:36;99641.81;;;16.20;50.46
11648;BME280;5880;52.342;9.662;2023-03-23T05:28:07;99644.56;;;16.20;50.64
11648;BME280;5880;52.342;9.662;2023-03-23T05:30:34;99636.31;;;16.20;50.65
11648;BME280;5880;52.342;9.662;2023-03-23T05:33:01;99641.81;;;16.20;50.59
11648;BME280;5880;52.342;9.662;2023-03-23T05:35:26;99639.34;;;16.19;50.70
11648;BME280;5880;52.342;9.662;2023-03-23T05:37:52;99649.25;;;16.20;50.51
11648;BME280;5880;52.342;9.662;2023-03-23T05:40:23;99644.56;;;16.20;50.32
11648;BME280;5880;52.342;9.662;2023-03-23T05:42:52;99637.13;;;16.21;50.76
11648;BME280;5880;52.342;9.662;2023-03-23T05:45:18;99645.91;;;16.23;50.70
11648;BME280;5880;52.342;9.662;2023-03-23T05:47:44;99639.88;;;16.21;50.75
11648;BME280;5880;52.342;9.662;2023-03-23T05:50:11;99643.69;;;16.25;50.49
11648;BME280;5880;52.342;9.662;2023-03-23T05:52:39;99649.72;;;16.27;50.72
11648;BME280;5880;52.342;9.662;2023-03-23T05:55:06;99647.81;;;16.28;50.67
11648;BME280;5880;52.342;9.662;2023-03-23T05:57:33;99649.44;;;16.29;50.54
11648;BME280;5880;52.342;9.662;2023-03-23T05:59:59;99645.31;;;16.26;50.56
11648;BME280;5880;52.342;9.662;2023-03-23T06:02:25;99648.31;;;16.30;50.91
11648;BME280;5880;52.342;9.662;2023-03-23T06:04:54;99649.97;;;16.31;50.78
11648;BME280;5880;52.342;9.662;2023-03-23T06:07:24;99652.44;;;16.32;50.77
11648;BME280;5880;52.342;9.662;2023-03-23T06:09:51;99648.53;;;16.33;50.58
11648;BME280;5880;52.342;9.662;2023-03-23T06:12:17;99637.00;;;16.31;50.65
11648;BME280;5880;52.342;9.662;2023-03-23T06:14:47;99638.66;;;16.32;50.63
11648;BME280;5880;52.342;9.662;2023-03-23T06:17:15;99629.25;;;16.33;50.76
11648;BME280;5880;52.342;9.662;2023-03-23T06:19:43;99629.19;;;16.38;50.78
11648;BME280;5880;52.342;9.662;2023-03-23T06:22:11;99631.41;;;16.36;50.65
11648;BME280;5880;52.342;9.662;2023-03-23T06:24:36;99633.06;;;16.37;50.90
11648;BME280;5880;52.342;9.662;2023-03-23T06:27:02;99620.69;;;16.35;50.90
11648;BME280;5880;52.342;9.662;2023-03-23T06:29:28;99625.31;;;16.39;50.89
11648;BME280;5880;52.342;9.662;2023-03-23T06:32:01;99625.31;;;16.39;50.77
11648;BME280;5880;52.342;9.662;2023-03-23T06:34:27;99634.69;;;16.38;50.75
11648;BME280;5880;52.342;9.662;2023-03-23T06:36:53;99637.16;;;16.40;50.74
11648;BME280;5880;52.342;9.662;2023-03-23T06:39:19;99633.00;;;16.42;50.99
11648;BME280;5880;52.342;9.662;2023-03-23T06:41:45;99648.41;;;16.43;50.95
11648;BME280;5880;52.342;9.662;2023-03-23T06:44:10;99642.09;;;16.43;51.06
11648;BME280;5880;52.342;9.662;2023-03-23T06:46:40;99650.81;;;16.50;50.95
11648;BME280;5880;52.342;9.662;2023-03-23T06:49:07;99658.53;;;16.53;51.02
11648;BME280;5880;52.342;9.662;2023-03-23T06:51:32;99657.09;;;16.56;51.04
11648;BME280;5880;52.342;9.662;2023-03-23T06:53:58;99659.53;;;16.57;50.78
11648;BME280;5880;52.342;9.662;2023-03-23T06:56:27;99656.22;;;16.60;50.94
11648;BME280;5880;52.342;9.662;2023-03-23T06:58:53;99672.53;;;16.57;50.93
11648;BME280;5880;52.342;9.662;2023-03-23T07:01:19;99663.66;;;16.60;50.88
11648;BME280;5880;52.342;9.662;2023-03-23T07:03:45;99657.03;;;16.61;50.92
11648;BME280;5880;52.342;9.662;2023-03-23T07:06:11;99652.13;;;16.58;50.79
11648;BME280;5880;52.342;9.662;2023-03-23T07:08:37;99666.94;;;16.62;50.85
11648;BME280;5880;52.342;9.662;2023-03-23T07:11:03;99676.06;;;16.62;50.91
11648;BME280;5880;52.342;9.662;2023-03-23T07:13:29;99669.41;;;16.63;50.94
11648;BME280;5880;52.342;9.662;2023-03-23T07:15:55;99679.31;;;16.64;50.77
11648;BME280;5880;52.342;9.662;2023-03-23T07:18:22;99660.53;;;16.66;50.84
11648;BME280;5880;52.342;9.662;2023-03-23T07:20:52;99663.53;;;16.70;50.87
11648;BME280;5880;52.342;9.662;2023-03-23T07:23:18;99661.59;;;16.71;50.97
11648;BME280;5880;52.342;9.662;2023-03-23T07:25:45;99667.03;;;16.76;50.90
11648;BME280;5880;52.342;9.662;2023-03-23T07:28:12;99660.97;;;16.79;51.10
11648;BME280;5880;52.342;9.662;2023-03-23T07:30:38;99673.03;;;16.83;51.20
11648;BME280;5880;52.342;9.662;2023-03-23T07:33:06;99665.81;;;16.87;51.10
11648;BME280;5880;52.342;9.662;2023-03-23T07:35:32;99670.16;;;16.93;51.23
11648;BME280;5880;52.342;9.662;2023-03-23T07:37:58;99665.38;;;16.99;51.15
11648;BME280;5880;52.342;9.662;2023-03-23T07:40:25;99674.41;;;17.04;51.26
11648;BME280;5880;52.342;9.662;2023-03-23T07:42:54;99675.16;;;17.10;51.27
11648;BME280;5880;52.342;9.662;2023-03-23T07:45:21;99656.03;;;17.14;51.04
11648;BME280;5880;52.342;9.662;2023-03-23T07:47:46;99655.44;;;17.17;50.98
11648;BME280;5880;52.342;9.662;2023-03-23T07:50:12;99671.03;;;17.26;50.84
11648;BME280;5880;52.342;9.662;2023-03-23T07:52:39;99669.00;;;17.32;50.90
11648;BME280;5880;52.342;9.662;2023-03-23T07:55:09;99672.53;;;17.38;50.72
11648;BME280;5880;52.342;9.662;2023-03-23T07:57:44;99672.44;;;17.43;50.86
11648;BME280;5880;52.342;9.662;2023-03-23T08:00:11;99668.16;;;17.50;50.88
11648;BME280;5880;52.342;9.662;2023-03-23T08:02:39;99657.34;;;17.54;50.87
11648;BME280;5880;52.342;9.662;2023-03-23T08:05:05;99669.34;;;17.63;50.75
11648;BME280;5880;52.342;9.662;2023-03-23T08:07:30;99669.25;;;17.68;50.48
11648;BME280;5880;52.342;9.662;2023-03-23T08:09:56;99673.88;;;17.73;50.37
11648;BME280;5880;52.342;9.662;2023-03-23T08:12:22;99666.91;;;17.76;50.28
11648;BME280;5880;52.342;9.662;2023-03-23T08:14:47;99677.69;;;17.77;50.32
11648;BME280;5880;52.342;9.662;2023-03-23T08:17:13;99671.53;;;17.80;50.26
11648;BME280;5880;52.342;9.662;2023-03-23T08:19:40;99672.38;;;17.81;50.23
11648;BME280;5880;52.342;9.662;2023-03-23T08:22:06;99685.50;;;17.89;50.23
11648;BME280;5880;52.342;9.662;2023-03-23T08:24:32;99679.88;;;17.94;49.90
11648;BME280;5880;52.342;9.662;2023-03-23T08:27:00;99690.56;;;18.01;49.99
11648;BME280;5880;52.342;9.662;2023-03-23T08:29:26;99683.59;;;18.03;49.92
11648;BME280;5880;52.342;9.662;2023-03-23T08:31:52;99687.38;;;18.07;49.83
11648;BME280;5880;52.342;9.662;2023-03-23T08:34:17;99686.25;;;18.08;49.80
11648;BME280;5880;52.342;9.662;2023-03-23T08:36:43;99683.78;;;18.07;49.83
11648;BME280;5880;52.342;9.662;2023-03-23T08:39:12;99682.34;;;18.09;49.64
11648;BME280;5880;52.342;9.662;2023-03-23T08:41:37;99677.97;;;18.08;49.57
11648;BME280;5880;52.342;9.662;2023-03-23T08:44:03;99692.06;;;18.07;49.58
11648;BME280;5880;52.342;9.662;2023-03-23T08:46:29;99695.06;;;18.10;49.65
11648;BME280;5880;52.342;9.662;2023-03-23T08:48:55;99697.50;;;18.12;49.61
11648;BME280;5880;52.342;9.662;2023-03-23T08:51:21;99698.34;;;18.12;49.51
11648;BME280;5880;52.342;9.662;2023-03-23T08:53:47;99710.22;;;18.13;49.48
11648;BME280;5880;52.342;9.662;2023-03-23T08:56:12;99712.69;;;18.14;49.54
11648;BME280;5880;52.342;9.662;2023-03-23T08:58:39;99711.25;;;18.17;49.48
11648;BME280;5880;52.342;9.662;2023-03-23T09:01:07;99712.28;;;18.21;49.44
11648;BME280;5880;52.342;9.662;2023-03-23T09:03:34;99702.34;;;18.20;49.37
11648;BME280;5880;52.342;9.662;2023-03-23T09:06:07;99708.59;;;18.26;49.14
11648;BME280;5880;52.342;9.662;2023-03-23T09:08:33;99718.84;;;18.25;49.26
11648;BME280;5880;52.342;9.662;2023-03-23T09:11:07;99718.22;;;18.28;49.33
11648;BME280;5880;52.342;9.662;2023-03-23T09:13:35;99705.53;;;18.27;49.28
11648;BME280;5880;52.342;9.662;2023-03-23T09:16:02;99715.97;;;18.30;49.35
11648;BME280;5880;52.342;9.662;2023-03-23T09:18:30;99714.03;;;18.31;49.14
11648;BME280;5880;52.342;9.662;2023-03-23T09:20:58;99707.38;;;18.32;49.09
11648;BME280;5880;52.342;9.662;2023-03-23T09:23:25;99715.38;;;18.33;49.13
11648;BME280;5880;52.342;9.662;2023-03-23T09:25:51;99718.97;;;18.34;49.15
11648;BME280;5880;52.342;9.662;2023-03-23T09:28:18;99713.13;;;18.35;49.01
11648;BME280;5880;52.342;9.662;2023-03-23T09:30:44;99718.03;;;18.39;49.14
11648;BME280;5880;52.342;9.662;2023-03-23T09:33:11;99725.72;;;18.42;49.34
11648;BME280;5880;52.342;9.662;2023-03-23T09:35:37;99730.63;;;18.45;49.09
11648;BME280;5880;52.342;9.662;2023-03-23T09:38:05;99733.09;;;18.46;49.07
11648;BME280;5880;52.342;9.662;2023-03-23T09:41:07;99734.75;;;18.47;48.99
11648;BME280;5880;52.342;9.662;2023-03-23T09:46:50;99732.38;;;18.41;48.96
11648;BME280;5880;52.342;9.662;2023-03-23T09:49:26;99742.31;;;18.42;48.92
11648;BME280;5880;52.342;9.662;2023-03-23T09:51:57;99739.03;;;18.40;48.88
11648;BME280;5880;52.342;9.662;2023-03-23T09:54:50;99752.03;;;18.39;48.74
11648;BME280;5880;52.342;9.662;2023-03-23T09:57:37;99739.94;;;18.35;48.71
11648;BME280;5880;52.342;9.662;2023-03-23T10:00:24;99744.16;;;18.32;48.58
11648;BME280;5880;52.342;9.662;2023-03-23T10:03:15;99755.31;;;18.27;48.65
11648;BME280;5880;52.342;9.662;2023-03-23T10:05:55;99749.25;;;18.25;48.62
11648;BME280;5880;52.342;9.662;2023-03-23T10:08:23;99762.28;;;18.25;48.70
11648;BME280;5880;52.342;9.662;2023-03-23T10:11:03;99758.06;;;18.27;48.80
11648;BME280;5880;52.342;9.662;2023-03-23T10:16:30;99771.63;;;18.29;48.74
11648;BME280;5880;52.342;9.662;2023-03-23T10:22:09;99771.81;;;18.32;48.81
11648;BME280;5880;52.342;9.662;2023-03-23T10:24:49;99765.34;;;18.37;48.82
11648;BME280;5880;52.342;9.662;2023-03-23T10:27:33;99771.63;;;18.43;48.84
11648;BME280;5880;52.342;9.662;2023-03-23T10:30:19;99776.56;;;18.46;48.77
11648;BME280;5880;52.342;9.662;2023-03-23T10:33:01;99774.81;;;18.50;48.63
11648;BME280;5880;52.342;9.662;2023-03-23T10:35:56;99772.56;;;18.52;48.65
11648;BME280;5880;52.342;9.662;2023-03-23T10:38:34;99766.72;;;18.53;48.64
11648;BME280;5880;52.342;9.662;2023-03-23T10:41:09;99776.25;;;18.61;48.76
11648;BME280;5880;52.342;9.662;2023-03-23T10:43:38;99775.03;;;18.67;48.98
11648;BME280;5880;52.342;9.662;2023-03-23T10:46:45;99791.66;;;18.81;49.10
11648;BME280;5880;52.342;9.662;2023-03-23T10:49:20;99780.59;;;18.95;49.24
11648;BME280;5880;52.342;9.662;2023-03-23T10:52:03;99778.84;;;19.13;49.18
11648;BME280;5880;52.342;9.662;2023-03-23T10:54:46;99768.56;;;19.27;49.11
11648;BME280;5880;52.342;9.662;2023-03-23T10:57:25;99780.59;;;19.45;48.97
11648;BME280;5880;52.342;9.662;2023-03-23T11:00:22;99781.88;;;19.61;48.81
11648;BME280;5880;52.342;9.662;2023-03-23T11:03:04;99769.97;;;19.75;48.70
11648;BME280;5880;52.342;9.662;2023-03-23T11:05:48;99764.38;;;19.89;48.61
11648;BME280;5880;52.342;9.662;2023-03-23T11:08:21;99755.78;;;19.99;48.71
11648;BME280;5880;52.342;9.662;2023-03-23T11:10:55;99764.22;;;20.16;48.47
11648;BME280;5880;52.342;9.662;2023-03-23T11:13:30;99754.31;;;20.24;47.76
11648;BME280;5880;52.342;9.662;2023-03-23T11:15:56;99756.31;;;20.32;47.36
11648;BME280;5880;52.342;9.662;2023-03-23T11:18:24;99768.91;;;20.38;47.61
11648;BME280;5880;52.342;9.662;2023-03-23T11:20:57;99778.75;;;20.44;46.78
11648;BME280;5880;52.342;9.662;2023-03-23T11:23:35;99772.38;;;20.44;46.70
11648;BME280;5880;52.342;9.662;2023-03-23T11:26:22;99776.47;;;20.47;46.59
11648;BME280;5880;52.342;9.662;2023-03-23T11:29:12;99769.09;;;20.42;46.26
11648;BME280;5880;52.342;9.662;2023-03-23T11:31:49;99768.09;;;20.38;46.26
11648;BME280;5880;52.342;9.662;2023-03-23T11:34:30;99762.03;;;20.36;46.40
11648;BME280;5880;52.342;9.662;2023-03-23T11:37:07;99762.69;;;20.33;45.79
11648;BME280;5880;52.342;9.662;2023-03-23T11:43:09;99763.78;;;20.23;45.58
11648;BME280;5880;52.342;9.662;2023-03-23T11:45:19;99766.66;;;20.18;45.56
11648;BME280;5880;52.342;9.662;2023-03-23T11:51:14;99775.91;;;20.05;45.32
11648;BME280;5880;52.342;9.662;2023-03-23T11:56:34;99765.19;;;19.89;45.44
11648;BME280;5880;52.342;9.662;2023-03-23T11:59:01;99775.91;;;19.82;45.21
11648;BME280;5880;52.342;9.662;2023-03-23T12:01:54;99777.66;;;19.78;45.36
11648;BME280;5880;52.342;9.662;2023-03-23T12:04:55;99807.75;;;19.71;45.61
11648;BME280;5880;52.342;9.662;2023-03-23T12:08:03;99845.56;;;19.53;45.66
11648;BME280;5880;52.342;9.662;2023-03-23T12:10:50;99847.16;;;19.17;45.88
11648;BME280;5880;52.342;9.662;2023-03-23T12:18:43;99823.34;;;18.42;46.21
11648;BME280;5880;52.342;9.662;2023-03-23T12:31:21;99850.94;;;17.96;47.47
11648;BME280;5880;52.342;9.662;2023-03-23T12:34:15;99850.75;;;17.92;47.81
11648;BME280;5880;52.342;9.662;2023-03-23T12:39:55;99852.78;;;17.86;48.25
11648;BME280;5880;52.342;9.662;2023-03-23T12:48:04;99858.84;;;17.64;48.40
11648;BME280;5880;52.342;9.662;2023-03-23T12:50:58;99860.88;;;17.59;48.14
11648;BME280;5880;52.342;9.662;2023-03-23T12:53:36;99874.16;;;17.57;48.50
11648;BME280;5880;52.342;9.662;2023-03-23T12:56:16;99857.94;;;17.50;48.62
11648;BME280;5880;52.342;9.662;2023-03-23T12:58:47;99850.19;;;17.52;48.71
11648;BME280;5880;52.342;9.662;2023-03-23T13:01:24;99851.00;;;17.52;48.79
11648;BME280;5880;52.342;9.662;2023-03-23T13:04:31;99862.88;;;17.53;48.77
11648;BME280;5880;52.342;9.662;2023-03-23T13:07:02;99877.53;;;17.54;48.66
11648;BME280;5880;52.342;9.662;2023-03-23T13:09:47;99863.63;;;17.59;49.08
11648;BME280;5880;52.342;9.662;2023-03-23T13:12:15;99868.91;;;17.55;48.87
11648;BME280;5880;52.342;9.662;2023-03-23T13:23:15;99860.94;;;17.54;48.77
11648;BME280;5880;52.342;9.662;2023-03-23T13:26:07;99871.75;;;17.50;48.81
11648;BME280;5880;52.342;9.662;2023-03-23T13:31:39;99855.34;;;17.40;48.69
11648;BME280;5880;52.342;9.662;2023-03-23T13:34:16;99872.72;;;17.40;48.66
11648;BME280;5880;52.342;9.662;2023-03-23T13:37:26;99861.97;;;17.39;48.60
11648;BME280;5880;52.342;9.662;2023-03-23T13:39:52;99878.00;;;17.37;48.51
11648;BME280;5880;52.342;9.662;2023-03-23T13:42:27;99874.22;;;17.33;48.63
11648;BME280;5880;52.342;9.662;2023-03-23T13:50:58;99883.78;;;17.16;48.83
11648;BME280;5880;52.342;9.662;2023-03-23T13:53:43;99887.66;;;17.15;48.71
11648;BME280;5880;52.342;9.662;2023-03-23T13:56:39;99876.91;;;17.14;49.06
11648;BME280;5880;52.342;9.662;2023-03-23T13:59:13;99868.59;;;17.14;49.19
11648;BME280;5880;52.342;9.662;2023-03-23T14:01:41;99876.31;;;17.17;49.14
11648;BME280;5880;52.342;9.662;2023-03-23T14:04:15;99867.16;;;17.21;48.90
11648;BME280;5880;52.342;9.662;2023-03-23T14:06:42;99867.16;;;17.21;49.00
11648;BME280;5880;52.342;9.662;2023-03-23T14:09:28;99873.72;;;17.25;48.92
11648;BME280;5880;52.342;9.662;2023-03-23T14:12:04;99879.22;;;17.25;48.94
11648;BME280;5880;52.342;9.662;2023-03-23T14:14:49;99851.94;;;17.24;48.91
11648;BME280;5880;52.342;9.662;2023-03-23T14:17:26;99845.34;;;17.20;49.05
11648;BME280;5880;52.342;9.662;2023-03-23T14:19:56;99840.66;;;17.20;49.13
11648;BME280;5880;52.342;9.662;2023-03-23T14:22:32;99851.41;;;17.22;49.25
11648;BME280;5880;52.342;9.662;2023-03-23T14:25:13;99851.94;;;17.24;49.27
11648;BME280;5880;52.342;9.662;2023-03-23T14:27:40;99854.16;;;17.22;49.53
11648;BME280;5880;52.342;9.662;2023-03-23T14:30:14;99861.84;;;17.25;49.39
11648;BME280;5880;52.342;9.662;2023-03-23T14:32:40;99852.47;;;17.26;49.67
11648;BME280;5880;52.342;9.662;2023-03-23T14:35:27;99855.44;;;17.29;49.67
11648;BME280;5880;52.342;9.662;2023-03-23T14:37:55;99867.31;;;17.30;49.86
11648;BME280;5880;52.342;9.662;2023-03-23T14:40:22;99865.59;;;17.34;49.73
11648;BME280;5880;52.342;9.662;2023-03-23T14:42:50;99863.09;;;17.38;49.99
11648;BME280;5880;52.342;9.662;2023-03-23T14:45:19;99865.78;;;17.43;50.00